createdAt,value
2017-12-31T00:00:18.543Z,938.9
2017-12-31T00:01:26.764Z,938.9
2017-12-31T00:02:34.731Z,938.9
2017-12-31T00:03:42.882Z,938.9
2017-12-31T00:04:50.923Z,939.0
2017-12-31T00:05:59.013Z,939.0
2017-12-31T00:07:07.161Z,939.0
2017-12-31T00:08:15.257Z,939.0
2017-12-31T00:09:23.354Z,938.9
2017-12-31T00:10:31.826Z,938.9
2017-12-31T00:11:39.480Z,938.8
2017-12-31T00:12:47.639Z,938.9
2017-12-31T00:13:55.688Z,938.9
2017-12-31T00:15:03.762Z,939.0
2017-12-31T00:16:11.856Z,938.9
2017-12-31T00:17:19.942Z,939.0
2017-12-31T00:18:28.092Z,938.9
2017-12-31T00:19:36.173Z,939.0
2017-12-31T00:20:44.223Z,938.9
2017-12-31T00:21:52.319Z,939.0
2017-12-31T00:23:00.412Z,939.0
2017-12-31T00:24:08.631Z,939.0
2017-12-31T00:25:16.630Z,939.1
2017-12-31T00:26:24.889Z,938.9
2017-12-31T00:27:32.820Z,939.0
2017-12-31T00:28:40.907Z,939.0
2017-12-31T00:29:49.078Z,939.0
2017-12-31T00:30:57.290Z,939.0
2017-12-31T00:32:05.191Z,939.0
2017-12-31T00:33:13.364Z,939.0
2017-12-31T00:34:21.456Z,939.1
2017-12-31T00:35:29.624Z,939.1
2017-12-31T00:36:37.637Z,939.1
2017-12-31T00:37:45.721Z,939.1
2017-12-31T00:38:53.819Z,939.1
2017-12-31T00:40:01.998Z,939.1
2017-12-31T00:41:10.135Z,939.1
2017-12-31T00:42:18.093Z,939.1
2017-12-31T00:43:26.200Z,939.2
2017-12-31T00:44:34.408Z,939.2
2017-12-31T00:45:42.372Z,939.2
2017-12-31T00:46:50.573Z,939.2
2017-12-31T00:47:58.551Z,939.1
2017-12-31T00:49:06.746Z,939.2
2017-12-31T00:50:14.774Z,939.2
2017-12-31T00:51:22.873Z,939.3
2017-12-31T00:52:30.949Z,939.2
2017-12-31T00:53:38.983Z,939.3
2017-12-31T00:54:47.120Z,939.3
2017-12-31T00:55:55.188Z,939.2
2017-12-31T00:57:03.260Z,939.2
2017-12-31T00:58:11.481Z,939.3
2017-12-31T00:59:19.463Z,939.3
2017-12-31T01:00:27.542Z,939.3
2017-12-31T01:01:35.637Z,939.3
2017-12-31T01:02:43.736Z,939.3
2017-12-31T01:03:51.879Z,939.3
2017-12-31T01:04:59.939Z,939.4
2017-12-31T01:06:08.030Z,939.4
2017-12-31T01:07:16.349Z,939.4
2017-12-31T01:08:24.214Z,939.4
2017-12-31T01:09:32.428Z,939.4
2017-12-31T01:10:40.402Z,939.4
2017-12-31T01:11:48.654Z,939.5
2017-12-31T01:12:56.572Z,939.4
2017-12-31T01:14:04.669Z,939.4
2017-12-31T01:15:12.805Z,939.4
2017-12-31T01:16:20.986Z,939.5
2017-12-31T01:17:28.935Z,939.5
2017-12-31T01:18:37.041Z,939.5
2017-12-31T01:19:45.124Z,939.5
2017-12-31T01:20:53.451Z,939.5
2017-12-31T01:22:01.299Z,939.6
2017-12-31T01:23:09.470Z,939.5
2017-12-31T01:24:17.523Z,939.5
2017-12-31T01:25:25.754Z,939.5
2017-12-31T01:26:33.830Z,939.5
2017-12-31T01:27:41.797Z,939.5
2017-12-31T01:28:49.890Z,939.6
2017-12-31T01:29:57.990Z,939.4
2017-12-31T01:31:06.080Z,939.4
2017-12-31T01:32:14.245Z,939.4
2017-12-31T01:33:22.272Z,939.4
2017-12-31T01:34:30.448Z,939.6
2017-12-31T01:35:38.439Z,939.6
2017-12-31T01:36:46.530Z,939.5
2017-12-31T01:37:54.684Z,939.6
2017-12-31T01:39:03.001Z,939.6
2017-12-31T01:40:10.815Z,939.6
2017-12-31T01:41:18.900Z,939.6
2017-12-31T01:42:26.982Z,939.6
2017-12-31T01:43:35.130Z,939.5
2017-12-31T01:44:43.181Z,939.6
2017-12-31T01:45:51.275Z,939.6
2017-12-31T01:46:59.365Z,939.5
2017-12-31T01:48:07.607Z,939.6
2017-12-31T01:49:15.683Z,939.5
2017-12-31T01:50:23.652Z,939.6
2017-12-31T01:51:31.737Z,939.5
2017-12-31T01:52:39.924Z,939.6
2017-12-31T01:53:47.925Z,939.6
2017-12-31T01:54:56.135Z,939.6
2017-12-31T01:56:04.097Z,939.7
2017-12-31T01:57:12.374Z,939.6
2017-12-31T01:58:20.278Z,939.6
2017-12-31T01:59:28.374Z,939.7
2017-12-31T02:00:36.521Z,939.7
2017-12-31T02:01:44.714Z,939.6
2017-12-31T02:02:52.658Z,939.6
2017-12-31T02:04:00.747Z,939.6
2017-12-31T02:05:08.834Z,939.7
2017-12-31T02:06:17.018Z,939.7
2017-12-31T02:07:25.024Z,939.7
2017-12-31T02:08:33.440Z,939.7
2017-12-31T02:09:41.688Z,939.6
2017-12-31T02:10:49.678Z,939.6
2017-12-31T02:11:57.827Z,939.7
2017-12-31T02:13:05.815Z,939.7
2017-12-31T02:14:14.034Z,939.7
2017-12-31T02:15:21.997Z,939.7
2017-12-31T02:16:30.101Z,939.8
2017-12-31T02:17:38.229Z,939.8
2017-12-31T02:18:46.266Z,939.7
2017-12-31T02:19:54.369Z,939.8
2017-12-31T02:21:02.460Z,939.8
2017-12-31T02:22:10.560Z,939.8
2017-12-31T02:23:18.728Z,939.8
2017-12-31T02:24:26.740Z,939.8
2017-12-31T02:25:34.830Z,939.8
2017-12-31T02:26:43.034Z,939.8
2017-12-31T02:27:51.015Z,939.9
2017-12-31T02:28:59.157Z,939.8
2017-12-31T02:30:07.206Z,939.9
2017-12-31T02:31:15.296Z,939.8
2017-12-31T02:32:23.394Z,939.8
2017-12-31T02:33:31.480Z,939.8
2017-12-31T02:34:39.633Z,939.8
2017-12-31T02:35:47.668Z,939.8
2017-12-31T02:36:55.763Z,939.8
2017-12-31T02:38:03.848Z,939.8
2017-12-31T02:39:11.938Z,939.8
2017-12-31T02:40:20.078Z,939.8
2017-12-31T02:41:28.128Z,939.9
2017-12-31T02:42:36.262Z,939.9
2017-12-31T02:43:44.305Z,939.8
2017-12-31T02:44:52.392Z,939.8
2017-12-31T02:46:00.548Z,939.9
2017-12-31T02:47:08.608Z,939.8
2017-12-31T02:48:16.676Z,939.9
2017-12-31T02:49:24.773Z,939.8
2017-12-31T02:50:32.871Z,939.8
2017-12-31T02:51:41.083Z,939.8
2017-12-31T02:52:49.063Z,939.8
2017-12-31T02:53:57.147Z,939.8
2017-12-31T02:55:05.241Z,939.8
2017-12-31T02:56:13.329Z,939.7
2017-12-31T02:57:21.930Z,939.8
2017-12-31T02:58:29.573Z,939.7
2017-12-31T02:59:37.607Z,939.8
2017-12-31T03:00:45.707Z,939.8
2017-12-31T03:01:53.795Z,939.8
2017-12-31T03:03:02.003Z,939.8
2017-12-31T03:04:10.007Z,939.8
2017-12-31T03:05:18.085Z,939.8
2017-12-31T03:06:26.174Z,939.8
2017-12-31T03:07:34.347Z,939.8
2017-12-31T03:08:42.422Z,939.8
2017-12-31T03:09:50.463Z,939.8
2017-12-31T03:10:58.562Z,939.9
2017-12-31T03:12:06.829Z,939.8
2017-12-31T03:13:14.758Z,939.8
2017-12-31T03:14:22.971Z,939.8
2017-12-31T03:15:31.324Z,939.7
2017-12-31T03:16:39.425Z,939.8
2017-12-31T03:17:47.526Z,939.8
2017-12-31T03:18:55.633Z,939.7
2017-12-31T03:20:03.869Z,939.7
2017-12-31T03:21:11.816Z,939.8
2017-12-31T03:22:19.906Z,939.8
2017-12-31T03:23:27.996Z,939.7
2017-12-31T03:24:36.090Z,939.8
2017-12-31T03:25:44.261Z,939.7
2017-12-31T03:26:52.266Z,939.7
2017-12-31T03:28:00.369Z,939.7
2017-12-31T03:29:08.455Z,939.6
2017-12-31T03:30:16.669Z,939.7
2017-12-31T03:31:24.686Z,939.7
2017-12-31T03:32:32.721Z,939.6
2017-12-31T03:33:40.850Z,939.7
2017-12-31T03:34:48.912Z,939.6
2017-12-31T03:35:57.007Z,939.6
2017-12-31T03:37:05.145Z,939.7
2017-12-31T03:38:13.259Z,939.7
2017-12-31T03:39:21.342Z,939.6
2017-12-31T03:40:29.431Z,939.6
2017-12-31T03:41:37.531Z,939.7
2017-12-31T03:42:45.679Z,939.6
2017-12-31T03:43:53.737Z,939.7
2017-12-31T03:45:02.688Z,939.7
2017-12-31T03:46:09.991Z,939.7
2017-12-31T03:47:17.995Z,939.6
2017-12-31T03:48:26.212Z,939.7
2017-12-31T03:49:34.190Z,939.7
2017-12-31T03:50:42.301Z,939.7
2017-12-31T03:51:50.376Z,939.7
2017-12-31T03:52:58.459Z,939.7
2017-12-31T03:54:06.610Z,939.7
2017-12-31T03:55:14.643Z,939.7
2017-12-31T03:56:22.739Z,939.7
2017-12-31T03:57:30.836Z,939.6
2017-12-31T03:58:38.928Z,939.7
2017-12-31T03:59:47.074Z,939.7
2017-12-31T04:00:55.109Z,939.7
2017-12-31T04:02:03.322Z,939.6
2017-12-31T04:03:11.304Z,939.6
2017-12-31T04:04:19.401Z,939.7
2017-12-31T04:05:27.548Z,939.6
2017-12-31T04:06:35.845Z,939.7
2017-12-31T04:07:44.088Z,939.7
2017-12-31T04:08:52.036Z,939.6
2017-12-31T04:10:00.119Z,939.7
2017-12-31T04:11:08.276Z,939.7
2017-12-31T04:12:16.309Z,939.7
2017-12-31T04:13:24.425Z,939.6
2017-12-31T04:14:32.508Z,939.7
2017-12-31T04:15:40.591Z,939.6
2017-12-31T04:16:48.800Z,939.7
2017-12-31T04:17:57.019Z,939.6
2017-12-31T04:19:04.883Z,939.7
2017-12-31T04:20:12.994Z,939.6
2017-12-31T04:21:21.373Z,939.6
2017-12-31T04:22:29.506Z,939.6
2017-12-31T04:23:37.537Z,939.5
2017-12-31T04:24:45.627Z,939.6
2017-12-31T04:25:53.715Z,939.6
2017-12-31T04:27:01.800Z,939.6
2017-12-31T04:28:10.005Z,939.6
2017-12-31T04:29:17.977Z,939.5
2017-12-31T04:30:26.064Z,939.5
2017-12-31T04:31:34.153Z,939.6
2017-12-31T04:32:42.246Z,939.5
2017-12-31T04:33:50.399Z,939.6
2017-12-31T04:34:58.633Z,939.6
2017-12-31T04:36:06.531Z,939.5
2017-12-31T04:37:14.620Z,939.6
2017-12-31T04:38:22.719Z,939.5
2017-12-31T04:39:30.868Z,939.5
2017-12-31T04:40:38.908Z,939.5
2017-12-31T04:41:46.989Z,939.5
2017-12-31T04:42:55.076Z,939.5
2017-12-31T04:44:03.176Z,939.6
2017-12-31T04:45:11.326Z,939.5
2017-12-31T04:46:19.356Z,939.5
2017-12-31T04:47:27.449Z,939.6
2017-12-31T04:48:35.594Z,939.5
2017-12-31T04:49:43.808Z,939.6
2017-12-31T04:50:51.840Z,939.6
2017-12-31T04:51:59.887Z,939.6
2017-12-31T04:53:07.979Z,939.6
2017-12-31T04:54:16.068Z,939.6
2017-12-31T04:55:24.157Z,939.6
2017-12-31T04:56:32.325Z,939.5
2017-12-31T04:57:40.362Z,939.5
2017-12-31T04:58:48.459Z,939.5
2017-12-31T04:59:56.552Z,939.5
2017-12-31T05:01:04.813Z,939.5
2017-12-31T05:02:12.850Z,939.5
2017-12-31T05:03:20.885Z,939.5
2017-12-31T05:04:28.938Z,939.5
2017-12-31T05:05:37.078Z,939.4
2017-12-31T05:06:45.126Z,939.4
2017-12-31T05:07:53.281Z,939.4
2017-12-31T05:09:01.318Z,939.4
2017-12-31T05:10:09.419Z,939.4
2017-12-31T05:11:17.507Z,939.4
2017-12-31T05:12:25.604Z,939.4
2017-12-31T05:13:33.755Z,939.5
2017-12-31T05:14:41.781Z,939.5
2017-12-31T05:15:49.877Z,939.4
2017-12-31T05:16:57.971Z,939.5
2017-12-31T05:18:06.089Z,939.5
2017-12-31T05:19:14.300Z,939.6
2017-12-31T05:20:22.403Z,939.6
2017-12-31T05:21:30.426Z,939.7
2017-12-31T05:22:38.688Z,939.5
2017-12-31T05:23:46.614Z,939.6
2017-12-31T05:24:54.760Z,939.6
2017-12-31T05:26:02.798Z,939.6
2017-12-31T05:27:10.905Z,939.6
2017-12-31T05:28:18.991Z,939.7
2017-12-31T05:29:27.071Z,939.6
2017-12-31T05:30:35.222Z,939.5
2017-12-31T05:31:43.257Z,939.6
2017-12-31T05:32:51.393Z,939.5
2017-12-31T05:33:59.447Z,939.5
2017-12-31T05:35:07.534Z,939.6
2017-12-31T05:36:15.676Z,939.6
2017-12-31T05:37:23.776Z,939.6
2017-12-31T05:38:31.812Z,939.7
2017-12-31T05:39:40.499Z,939.6
2017-12-31T05:40:48.577Z,939.7
2017-12-31T05:41:56.791Z,939.6
2017-12-31T05:43:04.766Z,939.7
2017-12-31T05:44:12.863Z,939.7
2017-12-31T05:45:20.958Z,939.7
2017-12-31T05:46:29.051Z,939.7
2017-12-31T05:48:45.394Z,939.6
2017-12-31T05:49:53.371Z,939.7
2017-12-31T05:51:01.461Z,939.7
2017-12-31T05:52:09.546Z,939.7
2017-12-31T05:53:17.692Z,939.8
2017-12-31T05:54:25.741Z,939.8
2017-12-31T05:55:33.829Z,939.8
2017-12-31T05:56:41.977Z,939.7
2017-12-31T05:57:50.018Z,939.9
2017-12-31T05:58:58.251Z,939.8
2017-12-31T06:00:06.240Z,939.8
2017-12-31T06:01:14.297Z,939.8
2017-12-31T06:02:22.400Z,939.8
2017-12-31T06:03:30.509Z,939.9
2017-12-31T06:04:38.659Z,939.8
2017-12-31T06:05:46.690Z,939.8
2017-12-31T06:06:54.796Z,939.8
2017-12-31T06:08:02.888Z,939.9
2017-12-31T06:09:11.040Z,939.7
2017-12-31T06:10:19.258Z,939.7
2017-12-31T06:11:27.279Z,939.7
2017-12-31T06:12:35.268Z,939.7
2017-12-31T06:13:43.369Z,939.8
2017-12-31T06:14:51.485Z,939.8
2017-12-31T06:15:59.613Z,939.8
2017-12-31T06:17:07.663Z,939.9
2017-12-31T06:18:15.752Z,939.8
2017-12-31T06:19:23.942Z,939.8
2017-12-31T06:20:31.951Z,939.9
2017-12-31T06:21:40.101Z,939.8
2017-12-31T06:22:48.167Z,939.9
2017-12-31T06:23:56.356Z,939.9
2017-12-31T06:25:04.447Z,939.8
2017-12-31T06:26:12.413Z,939.9
2017-12-31T06:27:20.567Z,939.9
2017-12-31T06:28:28.697Z,939.8
2017-12-31T06:29:36.688Z,939.9
2017-12-31T06:30:44.781Z,939.9
2017-12-31T06:31:53.794Z,939.9
2017-12-31T06:33:02.055Z,940.0
2017-12-31T06:34:09.971Z,939.9
2017-12-31T06:35:18.063Z,940.0
2017-12-31T06:36:26.156Z,939.9
2017-12-31T06:37:34.433Z,940.0
2017-12-31T06:38:42.460Z,939.9
2017-12-31T06:39:50.435Z,939.9
2017-12-31T06:40:58.585Z,939.9
2017-12-31T06:42:06.688Z,939.9
2017-12-31T06:43:14.710Z,939.9
2017-12-31T06:44:22.868Z,939.9
2017-12-31T06:45:30.909Z,939.9
2017-12-31T06:46:39.009Z,939.9
2017-12-31T06:47:47.110Z,939.9
2017-12-31T06:48:55.213Z,939.9
2017-12-31T06:50:03.417Z,939.9
2017-12-31T06:51:11.391Z,939.8
2017-12-31T06:52:19.481Z,939.9
2017-12-31T06:53:27.571Z,939.9
2017-12-31T06:54:35.671Z,939.9
2017-12-31T06:55:43.896Z,939.9
2017-12-31T06:56:51.930Z,939.9
2017-12-31T06:57:59.972Z,940.0
2017-12-31T06:59:08.066Z,939.9
2017-12-31T07:00:16.292Z,939.9
2017-12-31T07:01:24.308Z,939.9
2017-12-31T07:02:32.334Z,939.9
2017-12-31T07:03:40.449Z,939.9
2017-12-31T07:04:48.604Z,939.9
2017-12-31T07:05:56.625Z,940.0
2017-12-31T07:07:04.779Z,940.0
2017-12-31T07:08:12.817Z,939.9
2017-12-31T07:09:20.918Z,939.9
2017-12-31T07:10:29.013Z,939.9
2017-12-31T07:11:37.104Z,940.0
2017-12-31T07:12:45.410Z,940.0
2017-12-31T07:13:53.356Z,940.0
2017-12-31T07:15:01.358Z,939.9
2017-12-31T07:16:09.449Z,939.9
2017-12-31T07:17:17.669Z,939.9
2017-12-31T07:18:25.726Z,939.9
2017-12-31T07:19:33.715Z,939.9
2017-12-31T07:20:41.812Z,939.9
2017-12-31T07:21:49.907Z,939.9
2017-12-31T07:22:58.030Z,939.9
2017-12-31T07:24:06.173Z,939.9
2017-12-31T07:25:14.205Z,939.9
2017-12-31T07:26:22.311Z,939.9
2017-12-31T07:27:30.397Z,939.8
2017-12-31T07:28:38.546Z,939.8
2017-12-31T07:29:46.638Z,939.8
2017-12-31T07:30:54.678Z,939.8
2017-12-31T07:32:02.765Z,939.8
2017-12-31T07:33:10.849Z,939.8
2017-12-31T07:34:18.936Z,939.8
2017-12-31T07:35:27.419Z,939.8
2017-12-31T07:36:35.473Z,939.8
2017-12-31T07:37:43.566Z,939.8
2017-12-31T07:38:51.682Z,939.8
2017-12-31T07:39:59.779Z,939.9
2017-12-31T07:41:07.911Z,939.9
2017-12-31T07:42:15.960Z,939.9
2017-12-31T07:43:24.379Z,939.9
2017-12-31T07:44:32.768Z,939.9
2017-12-31T07:45:40.574Z,939.9
2017-12-31T07:46:49.317Z,939.9
2017-12-31T07:47:56.870Z,939.9
2017-12-31T07:49:04.963Z,940.0
2017-12-31T07:50:13.052Z,940.0
2017-12-31T07:51:21.272Z,940.0
2017-12-31T07:52:29.356Z,940.0
2017-12-31T07:53:37.338Z,940.0
2017-12-31T07:54:45.577Z,940.0
2017-12-31T07:55:53.591Z,940.0
2017-12-31T07:57:01.631Z,940.0
2017-12-31T07:58:09.782Z,940.1
2017-12-31T07:59:18.003Z,940.1
2017-12-31T08:00:26.018Z,940.2
2017-12-31T08:01:34.018Z,940.1
2017-12-31T08:02:42.108Z,940.1
2017-12-31T08:03:50.423Z,940.1
2017-12-31T08:04:58.341Z,940.2
2017-12-31T08:06:06.403Z,940.2
2017-12-31T08:07:14.499Z,940.2
2017-12-31T08:08:22.587Z,940.2
2017-12-31T08:09:30.734Z,940.3
2017-12-31T08:10:38.778Z,940.2
2017-12-31T08:11:46.850Z,940.2
2017-12-31T08:12:54.938Z,940.2
2017-12-31T08:14:03.051Z,940.2
2017-12-31T08:15:11.211Z,940.1
2017-12-31T08:16:19.299Z,940.2
2017-12-31T08:17:27.337Z,940.2
2017-12-31T08:18:35.432Z,940.1
2017-12-31T08:19:43.523Z,940.2
2017-12-31T08:20:51.738Z,940.2
2017-12-31T08:21:59.704Z,940.2
2017-12-31T08:23:07.925Z,940.1
2017-12-31T08:24:15.886Z,940.1
2017-12-31T08:25:24.003Z,940.1
2017-12-31T08:26:32.137Z,940.0
2017-12-31T08:27:40.181Z,940.0
2017-12-31T08:28:48.280Z,940.0
2017-12-31T08:29:56.368Z,940.0
2017-12-31T08:31:04.454Z,940.0
2017-12-31T08:32:12.718Z,940.0
2017-12-31T08:33:20.751Z,940.0
2017-12-31T08:34:28.932Z,940.1
2017-12-31T08:35:37.016Z,940.0
2017-12-31T08:36:45.021Z,940.1
2017-12-31T08:37:53.178Z,940.1
2017-12-31T08:39:01.225Z,940.1
2017-12-31T08:40:09.368Z,940.1
2017-12-31T08:41:17.398Z,940.1
2017-12-31T08:42:25.503Z,940.1
2017-12-31T08:43:33.636Z,940.1
2017-12-31T08:44:41.680Z,940.2
2017-12-31T08:45:49.783Z,940.1
2017-12-31T08:46:57.871Z,940.2
2017-12-31T08:48:06.150Z,940.1
2017-12-31T08:49:14.124Z,940.1
2017-12-31T08:50:22.155Z,940.1
2017-12-31T08:51:30.244Z,940.2
2017-12-31T08:52:38.330Z,940.2
2017-12-31T08:53:46.510Z,940.2
2017-12-31T08:54:54.640Z,940.2
2017-12-31T08:56:02.605Z,940.2
2017-12-31T08:57:10.814Z,940.2
2017-12-31T08:58:18.850Z,940.2
2017-12-31T08:59:26.858Z,940.2
2017-12-31T09:00:35.009Z,940.2
2017-12-31T09:01:43.122Z,940.2
2017-12-31T09:02:51.128Z,940.2
2017-12-31T09:03:59.276Z,940.2
2017-12-31T09:05:07.319Z,940.2
2017-12-31T09:06:15.463Z,940.2
2017-12-31T09:07:23.662Z,940.2
2017-12-31T09:08:31.587Z,940.2
2017-12-31T09:09:39.666Z,940.2
2017-12-31T09:10:47.770Z,940.3
2017-12-31T09:11:55.915Z,940.3
2017-12-31T09:13:03.942Z,940.2
2017-12-31T09:14:12.046Z,940.2
2017-12-31T09:15:20.195Z,940.3
2017-12-31T09:16:28.231Z,940.3
2017-12-31T09:17:36.469Z,940.3
2017-12-31T09:18:44.640Z,940.3
2017-12-31T09:19:52.620Z,940.2
2017-12-31T09:21:01.847Z,940.3
2017-12-31T09:22:09.944Z,940.3
2017-12-31T09:23:18.086Z,940.3
2017-12-31T09:24:26.116Z,940.4
2017-12-31T09:25:34.320Z,940.3
2017-12-31T09:26:42.310Z,940.4
2017-12-31T09:27:50.404Z,940.3
2017-12-31T09:28:58.737Z,940.3
2017-12-31T09:30:06.580Z,940.3
2017-12-31T09:31:14.836Z,940.3
2017-12-31T09:32:22.755Z,940.3
2017-12-31T09:33:30.857Z,940.3
2017-12-31T09:34:39.079Z,940.3
2017-12-31T09:35:47.108Z,940.3
2017-12-31T09:36:55.130Z,940.2
2017-12-31T09:38:03.228Z,940.2
2017-12-31T09:39:11.363Z,940.2
2017-12-31T09:40:19.472Z,940.1
2017-12-31T09:41:27.558Z,940.1
2017-12-31T09:42:35.605Z,940.1
2017-12-31T09:43:43.693Z,940.1
2017-12-31T09:44:51.785Z,940.1
2017-12-31T09:45:59.948Z,940.1
2017-12-31T09:47:07.975Z,940.1
2017-12-31T09:48:16.086Z,940.1
2017-12-31T09:49:24.170Z,940.1
2017-12-31T09:50:32.264Z,940.1
2017-12-31T09:51:40.472Z,940.1
2017-12-31T09:52:48.485Z,940.1
2017-12-31T09:53:56.524Z,940.1
2017-12-31T09:55:04.677Z,940.1
2017-12-31T09:56:12.878Z,940.1
2017-12-31T09:57:20.856Z,940.1
2017-12-31T09:58:28.892Z,940.1
2017-12-31T09:59:36.981Z,940.1
2017-12-31T10:00:45.154Z,940.0
2017-12-31T10:01:53.158Z,940.0
2017-12-31T10:03:01.317Z,940.0
2017-12-31T10:04:09.354Z,940.0
2017-12-31T10:05:17.577Z,940.0
2017-12-31T10:06:25.528Z,940.0
2017-12-31T10:07:33.686Z,940.0
2017-12-31T10:08:41.849Z,939.9
2017-12-31T10:09:50.004Z,939.9
2017-12-31T10:10:58.019Z,939.9
2017-12-31T10:12:06.010Z,939.8
2017-12-31T10:13:14.093Z,939.8
2017-12-31T10:14:22.317Z,939.7
2017-12-31T10:15:30.270Z,939.8
2017-12-31T10:16:38.395Z,939.8
2017-12-31T10:17:46.476Z,939.7
2017-12-31T10:18:54.774Z,939.7
2017-12-31T10:20:02.742Z,939.7
2017-12-31T10:21:10.791Z,939.7
2017-12-31T10:22:18.877Z,939.6
2017-12-31T10:23:27.020Z,939.6
2017-12-31T10:24:35.057Z,939.6
2017-12-31T10:25:43.269Z,939.5
2017-12-31T10:26:51.235Z,939.5
2017-12-31T10:27:59.333Z,939.5
2017-12-31T10:29:08.510Z,939.5
2017-12-31T10:30:16.432Z,939.4
2017-12-31T10:31:24.580Z,939.5
2017-12-31T10:32:32.631Z,939.5
2017-12-31T10:33:40.729Z,939.4
2017-12-31T10:34:48.817Z,939.4
2017-12-31T10:35:56.962Z,939.4
2017-12-31T10:37:05.236Z,939.3
2017-12-31T10:38:13.074Z,939.3
2017-12-31T10:39:21.289Z,939.3
2017-12-31T10:40:29.250Z,939.2
2017-12-31T10:41:37.417Z,939.3
2017-12-31T10:42:45.575Z,939.2
2017-12-31T10:43:53.598Z,939.2
2017-12-31T10:45:01.683Z,939.2
2017-12-31T10:46:09.780Z,939.2
2017-12-31T10:47:17.884Z,939.2
2017-12-31T10:48:26.015Z,939.1
2017-12-31T10:49:34.061Z,939.1
2017-12-31T10:50:42.154Z,939.1
2017-12-31T10:51:50.258Z,939.1
2017-12-31T10:52:58.346Z,939.1
2017-12-31T10:54:06.561Z,939.1
2017-12-31T10:55:14.581Z,939.1
2017-12-31T10:56:22.621Z,939.0
2017-12-31T10:57:30.699Z,939.0
2017-12-31T10:58:38.863Z,939.0
2017-12-31T10:59:47.078Z,938.9
2017-12-31T11:00:55.086Z,938.9
2017-12-31T11:02:03.158Z,938.9
2017-12-31T11:03:11.257Z,938.9
2017-12-31T11:04:19.373Z,938.9
2017-12-31T11:05:27.566Z,938.8
2017-12-31T11:06:35.537Z,938.8
2017-12-31T11:07:43.634Z,938.8
2017-12-31T11:08:51.856Z,938.8
2017-12-31T11:09:59.841Z,938.8
2017-12-31T11:11:08.228Z,938.7
2017-12-31T11:12:16.453Z,938.7
2017-12-31T11:13:24.358Z,938.6
2017-12-31T11:14:32.444Z,938.6
2017-12-31T11:15:40.535Z,938.6
2017-12-31T11:16:48.739Z,938.6
2017-12-31T11:17:56.703Z,938.6
2017-12-31T11:19:04.795Z,938.6
2017-12-31T11:20:12.893Z,938.5
2017-12-31T11:21:20.987Z,938.5
2017-12-31T11:22:29.156Z,938.5
2017-12-31T11:23:37.198Z,938.5
2017-12-31T11:24:45.291Z,938.5
2017-12-31T11:25:53.444Z,938.5
2017-12-31T11:27:01.490Z,938.4
2017-12-31T11:28:09.642Z,938.4
2017-12-31T11:29:17.678Z,938.4
2017-12-31T11:30:25.778Z,938.4
2017-12-31T11:31:33.865Z,938.3
2017-12-31T11:32:41.954Z,938.4
2017-12-31T11:33:50.171Z,938.4
2017-12-31T11:34:58.294Z,938.4
2017-12-31T11:36:06.239Z,938.3
2017-12-31T11:37:14.438Z,938.4
2017-12-31T11:38:22.629Z,938.3
2017-12-31T11:39:30.718Z,938.3
2017-12-31T11:40:38.713Z,938.3
2017-12-31T11:41:46.922Z,938.3
2017-12-31T11:42:55.065Z,938.3
2017-12-31T11:44:02.982Z,938.2
2017-12-31T11:45:11.130Z,938.2
2017-12-31T11:46:19.169Z,938.1
2017-12-31T11:47:27.269Z,938.1
2017-12-31T11:48:35.356Z,938.1
2017-12-31T11:49:43.469Z,938.1
2017-12-31T11:50:51.675Z,938.0
2017-12-31T11:51:59.652Z,938.0
2017-12-31T11:53:07.800Z,938.0
2017-12-31T11:54:15.851Z,937.8
2017-12-31T11:55:23.932Z,937.9
2017-12-31T11:56:32.087Z,937.9
2017-12-31T11:57:40.199Z,937.9
2017-12-31T11:58:48.227Z,937.7
2017-12-31T11:59:56.303Z,937.8
2017-12-31T12:01:04.408Z,937.7
2017-12-31T12:02:12.543Z,937.7
2017-12-31T12:03:20.586Z,937.7
2017-12-31T12:04:28.674Z,937.7
2017-12-31T12:05:36.763Z,937.8
2017-12-31T12:06:44.859Z,937.7
2017-12-31T12:07:53.000Z,937.7
2017-12-31T12:09:01.046Z,937.6
2017-12-31T12:10:09.342Z,937.5
2017-12-31T12:11:17.241Z,937.6
2017-12-31T12:12:25.340Z,937.5
2017-12-31T12:13:33.541Z,937.5
2017-12-31T12:14:41.702Z,937.5
2017-12-31T12:15:49.600Z,937.5
2017-12-31T12:16:57.715Z,937.5
2017-12-31T12:18:06.308Z,937.5
2017-12-31T12:19:14.372Z,937.5
2017-12-31T12:20:22.402Z,937.5
2017-12-31T12:21:30.509Z,937.5
2017-12-31T12:22:38.630Z,937.5
2017-12-31T12:23:46.761Z,937.4
2017-12-31T12:24:54.817Z,937.4
2017-12-31T12:26:02.888Z,937.4
2017-12-31T12:27:10.992Z,937.3
2017-12-31T12:28:19.076Z,937.3
2017-12-31T12:29:27.233Z,937.4
2017-12-31T12:30:35.270Z,937.3
2017-12-31T12:31:43.428Z,937.3
2017-12-31T12:32:51.578Z,937.3
2017-12-31T12:33:59.673Z,937.3
2017-12-31T12:35:07.816Z,937.2
2017-12-31T12:36:15.850Z,937.2
2017-12-31T12:37:23.948Z,937.3
2017-12-31T12:38:32.058Z,937.2
2017-12-31T12:39:40.249Z,937.2
2017-12-31T12:40:48.319Z,937.1
2017-12-31T12:41:56.391Z,937.1
2017-12-31T12:43:04.479Z,937.1
2017-12-31T12:44:12.660Z,937.0
2017-12-31T12:45:20.784Z,937.0
2017-12-31T12:46:28.761Z,937.0
2017-12-31T12:47:36.839Z,936.9
2017-12-31T12:48:44.999Z,936.9
2017-12-31T12:49:53.020Z,936.9
2017-12-31T12:51:01.157Z,936.9
2017-12-31T12:52:09.210Z,936.8
2017-12-31T12:53:17.305Z,936.8
2017-12-31T12:54:25.378Z,936.9
2017-12-31T12:55:33.485Z,936.8
2017-12-31T12:56:41.651Z,936.8
2017-12-31T12:57:49.747Z,936.8
2017-12-31T12:58:57.770Z,936.7
2017-12-31T13:00:05.869Z,936.7
2017-12-31T13:01:14.064Z,936.6
2017-12-31T13:02:22.096Z,936.6
2017-12-31T13:03:30.126Z,936.6
2017-12-31T13:04:38.207Z,936.5
2017-12-31T13:05:46.306Z,936.6
2017-12-31T13:06:54.455Z,936.5
2017-12-31T13:08:02.544Z,936.5
2017-12-31T13:09:10.600Z,936.6
2017-12-31T13:10:18.685Z,936.5
2017-12-31T13:11:26.894Z,936.5
2017-12-31T13:12:34.876Z,936.5
2017-12-31T13:13:43.003Z,936.4
2017-12-31T13:14:51.040Z,936.4
2017-12-31T13:15:59.239Z,936.4
2017-12-31T13:17:07.405Z,936.4
2017-12-31T13:18:15.344Z,936.4
2017-12-31T13:19:23.502Z,936.4
2017-12-31T13:20:31.584Z,936.3
2017-12-31T13:21:39.612Z,936.3
2017-12-31T13:22:47.711Z,936.3
2017-12-31T13:23:55.789Z,936.3
2017-12-31T13:25:03.948Z,936.3
2017-12-31T13:26:11.975Z,936.3
2017-12-31T13:27:20.080Z,936.3
2017-12-31T13:28:28.174Z,936.3
2017-12-31T13:29:36.385Z,936.3
2017-12-31T13:30:44.501Z,936.3
2017-12-31T13:31:52.444Z,936.3
2017-12-31T13:33:00.670Z,936.2
2017-12-31T13:34:08.735Z,936.2
2017-12-31T13:35:16.895Z,936.2
2017-12-31T13:36:24.864Z,936.2
2017-12-31T13:37:32.896Z,936.2
2017-12-31T13:38:41.004Z,936.1
2017-12-31T13:39:49.099Z,936.2
2017-12-31T13:40:57.185Z,936.1
2017-12-31T13:42:05.388Z,936.1
2017-12-31T13:43:13.531Z,936.0
2017-12-31T13:44:21.461Z,936.1
2017-12-31T13:45:29.554Z,936.1
2017-12-31T13:46:37.657Z,936.0
2017-12-31T13:47:45.799Z,936.0
2017-12-31T13:48:53.937Z,936.0
2017-12-31T13:50:01.930Z,935.9
2017-12-31T13:51:10.017Z,935.9
2017-12-31T13:52:18.104Z,935.9
2017-12-31T13:53:26.290Z,935.9
2017-12-31T13:54:34.282Z,935.9
2017-12-31T13:55:42.378Z,935.8
2017-12-31T13:56:50.560Z,935.8
2017-12-31T13:57:58.563Z,935.8
2017-12-31T13:59:06.789Z,935.8
2017-12-31T14:00:14.740Z,935.7
2017-12-31T14:01:22.923Z,935.7
2017-12-31T14:02:30.922Z,935.7
2017-12-31T14:03:39.009Z,935.6
2017-12-31T14:04:47.221Z,935.6
2017-12-31T14:05:55.251Z,935.6
2017-12-31T14:07:03.307Z,935.6
2017-12-31T14:08:11.531Z,935.6
2017-12-31T14:09:19.742Z,935.6
2017-12-31T14:10:27.982Z,935.6
2017-12-31T14:11:35.817Z,935.5
2017-12-31T14:12:43.895Z,935.5
2017-12-31T14:13:52.045Z,935.5
2017-12-31T14:15:00.103Z,935.5
2017-12-31T14:16:08.241Z,935.5
2017-12-31T14:17:16.277Z,935.5
2017-12-31T14:18:24.416Z,935.5
2017-12-31T14:19:32.454Z,935.4
2017-12-31T14:20:40.614Z,935.4
2017-12-31T14:21:48.712Z,935.3
2017-12-31T14:22:56.757Z,935.3
2017-12-31T14:24:04.835Z,935.4
2017-12-31T14:25:12.939Z,935.3
2017-12-31T14:26:21.039Z,935.3
2017-12-31T14:27:29.242Z,935.3
2017-12-31T14:28:37.213Z,935.3
2017-12-31T14:29:45.306Z,935.3
2017-12-31T14:30:53.393Z,935.3
2017-12-31T14:32:01.509Z,935.3
2017-12-31T14:33:09.796Z,935.3
2017-12-31T14:34:17.653Z,935.2
2017-12-31T14:35:25.733Z,935.3
2017-12-31T14:36:33.947Z,935.24
2017-12-31T14:37:41.905Z,935.2